Time;durP1;ratioP1;P1;durP2;ratioP2;P2;SDS_P1;SDS_P2;PMS_P1;PMS_P2;Temp;Humidity;BMP_temperature;BMP_pressure;BME280_temperature;BME280_humidity;BME280_pressure;Samples;Min_cycle;Max_cycle;Signal;HPM_P1;HPM_P2
2022/01/26 00:07:44;;;;;;;74.53;32.67;;;;;;;;;;5132242;27;20175;-65
2022/01/26 00:10:10;;;;;;;71.95;31.23;;;;;;;;;;5132329;27;20050;-64
2022/01/26 00:12:36;;;;;;;77.28;33.03;;;;;;;;;;5132389;27;20043;-64
2022/01/26 00:15:02;;;;;;;77.95;32.10;;;;;;;;;;5131929;27;20381;-65
2022/01/26 00:17:28;;;;;;;66.50;29.63;;;;;;;;;;5114013;27;20552;-64
2022/01/26 00:20:13;;;;;;;72.45;30.73;;;;;;;;;;5113705;28;20107;-65
2022/01/26 00:28:07;;;;;;;81.18;33.40;;;;;;;;;;5131791;28;20046;-65
2022/01/26 00:38:39;;;;;;;73.63;30.80;;;;;;;;;;5136553;27;20066;-64
2022/01/26 00:41:13;;;;;;;76.82;31.95;;;;;;;;;;5136309;27;20050;-64
2022/01/26 00:43:45;;;;;;;79.47;31.83;;;;;;;;;;5136669;27;20086;-63
2022/01/26 00:46:12;;;;;;;75.65;31.65;;;;;;;;;;5136641;27;20060;-64
2022/01/26 00:48:38;;;;;;;77.45;31.65;;;;;;;;;;5117981;27;20202;-66
2022/01/26 00:51:06;;;;;;;71.97;30.17;;;;;;;;;;5118274;27;20438;-65
2022/01/26 00:53:37;;;;;;;79.03;32.38;;;;;;;;;;5136350;27;20035;-63
2022/01/26 00:56:04;;;;;;;73.47;30.77;;;;;;;;;;5135900;27;20039;-63
2022/01/26 00:58:31;;;;;;;79.03;32.05;;;;;;;;;;5135646;27;20142;-63
2022/01/26 01:00:59;;;;;;;72.78;30.58;;;;;;;;;;5117103;27;20036;-64
2022/01/26 01:03:26;;;;;;;72.95;30.40;;;;;;;;;;5135898;27;20074;-65
2022/01/26 01:08:25;;;;;;;75.88;30.20;;;;;;;;;;5136748;27;20047;-65
2022/01/26 01:10:52;;;;;;;73.50;29.98;;;;;;;;;;5136623;27;20174;-64
2022/01/26 01:13:22;;;;;;;74.72;31.58;;;;;;;;;;5135404;27;20255;-65
2022/01/26 01:15:49;;;;;;;75.60;28.55;;;;;;;;;;5136044;27;20043;-65
2022/01/26 01:18:22;;;;;;;73.82;31.63;;;;;;;;;;5135904;27;20063;-64
2022/01/26 01:32:01;;;;;;;78.05;31.02;;;;;;;;;;5135088;27;20043;-64
2022/01/26 01:34:06;;;;;;;77.70;31.65;;;;;;;;;;5105669;27;20039;-64
2022/01/26 01:36:34;;;;;;;76.38;31.52;;;;;;;;;;5135147;27;20042;-65
2022/01/26 01:39:00;;;;;;;70.50;29.40;;;;;;;;;;5117052;27;20051;-65
2022/01/26 01:41:26;;;;;;;74.55;30.88;;;;;;;;;;5135086;27;20046;-65
2022/01/26 01:43:52;;;;;;;79.93;30.35;;;;;;;;;;5134144;27;20069;-64
2022/01/26 01:46:18;;;;;;;80.30;32.08;;;;;;;;;;5135134;27;20403;-64
2022/01/26 01:48:44;;;;;;;79.47;32.53;;;;;;;;;;5134921;27;20042;-64
2022/01/26 01:51:14;;;;;;;79.20;31.98;;;;;;;;;;5135365;27;20480;-64
2022/01/26 01:53:42;;;;;;;80.72;31.65;;;;;;;;;;5135976;27;20043;-64
2022/01/26 01:56:10;;;;;;;78.88;32.28;;;;;;;;;;5117659;27;20088;-65
2022/01/26 01:58:36;;;;;;;81.32;32.13;;;;;;;;;;5135616;27;20079;-65
2022/01/26 02:01:02;;;;;;;79.97;32.88;;;;;;;;;;5116375;27;20058;-64
2022/01/26 02:03:28;;;;;;;78.72;32.75;;;;;;;;;;5134824;27;20081;-64
2022/01/26 02:05:54;;;;;;;76.18;30.35;;;;;;;;;;5134901;27;20043;-63
2022/01/26 02:08:21;;;;;;;79.22;30.95;;;;;;;;;;5134911;27;20035;-64
2022/01/26 02:10:47;;;;;;;71.57;30.13;;;;;;;;;;5135078;27;20400;-65
2022/01/26 02:13:24;;;;;;;75.75;30.45;;;;;;;;;;5134350;27;20067;-65
2022/01/26 02:16:00;;;;;;;76.28;32.95;;;;;;;;;;5134330;27;20050;-64
2022/01/26 02:59:33;;;;;;;89.97;34.28;;;;;;;;;;5092871;28;20040;-63
2022/01/26 03:04:34;;;;;;;85.93;31.65;;;;;;;;;;5092694;28;20076;-64
2022/01/26 03:07:10;;;;;;;86.43;32.90;;;;;;;;;;5092747;28;20044;-63
2022/01/26 03:09:43;;;;;;;77.57;30.63;;;;;;;;;;5092304;28;20051;-63
2022/01/26 03:12:11;;;;;;;78.45;30.15;;;;;;;;;;5092060;28;20119;-63
2022/01/26 03:14:55;;;;;;;79.03;31.02;;;;;;;;;;5074057;28;20079;-63
2022/01/26 03:17:50;;;;;;;79.80;31.42;;;;;;;;;;5092658;28;20036;-64
2022/01/26 03:20:16;;;;;;;77.70;29.85;;;;;;;;;;5092228;28;20071;-62
2022/01/26 03:28:38;;;;;;;75.90;29.65;;;;;;;;;;5092626;28;20050;-62
2022/01/26 03:36:15;;;;;;;78.65;31.20;;;;;;;;;;5093075;28;20092;-64
2022/01/26 03:38:48;;;;;;;80.97;31.17;;;;;;;;;;5074694;28;20040;-65
2022/01/26 03:41:33;;;;;;;76.75;30.30;;;;;;;;;;5092699;28;20032;-64
2022/01/26 03:43:59;;;;;;;78.93;29.02;;;;;;;;;;5092367;28;20097;-63
2022/01/26 03:46:26;;;;;;;76.20;29.88;;;;;;;;;;5092154;28;20089;-62
2022/01/26 03:48:52;;;;;;;74.38;29.40;;;;;;;;;;5091935;28;20512;-62
2022/01/26 03:51:18;;;;;;;73.00;28.42;;;;;;;;;;5092023;28;20472;-61
2022/01/26 03:53:44;;;;;;;77.30;30.75;;;;;;;;;;5091483;28;20044;-61
2022/01/26 03:56:10;;;;;;;79.00;30.13;;;;;;;;;;5091581;28;20051;-62
2022/01/26 03:58:36;;;;;;;87.72;31.60;;;;;;;;;;5091756;28;20036;-61
2022/01/26 04:01:02;;;;;;;82.35;30.67;;;;;;;;;;5091693;28;20046;-60
2022/01/26 04:03:28;;;;;;;81.25;31.83;;;;;;;;;;5091544;28;20044;-61
2022/01/26 04:05:54;;;;;;;79.30;30.92;;;;;;;;;;5091558;28;20356;-62
2022/01/26 04:08:27;;;;;;;80.47;32.22;;;;;;;;;;5091375;28;20050;-63
2022/01/26 04:13:19;;;;;;;75.53;28.52;;;;;;;;;;5091366;28;20055;-62
2022/01/26 04:15:45;;;;;;;81.82;29.30;;;;;;;;;;5091760;28;20036;-61
2022/01/26 04:18:16;;;;;;;73.15;29.73;;;;;;;;;;5073401;28;20044;-61
2022/01/26 04:20:46;;;;;;;80.90;29.95;;;;;;;;;;5091618;28;20576;-63
2022/01/26 04:25:55;;;;;;;74.70;28.02;;;;;;;;;;5091424;28;20066;-63
2022/01/26 04:28:27;;;;;;;75.47;30.10;;;;;;;;;;5091336;28;20044;-62
2022/01/26 04:30:54;;;;;;;82.03;33.45;;;;;;;;;;5091595;28;20527;-62
2022/01/26 04:33:20;;;;;;;71.97;29.05;;;;;;;;;;5091462;28;20044;-60
2022/01/26 04:35:47;;;;;;;74.75;30.02;;;;;;;;;;5073545;28;20036;-62
2022/01/26 04:38:23;;;;;;;74.30;27.80;;;;;;;;;;5091844;28;20044;-62
2022/01/26 04:41:07;;;;;;;78.15;30.65;;;;;;;;;;5073722;28;20488;-61
2022/01/26 04:43:37;;;;;;;72.65;27.55;;;;;;;;;;5091341;28;20040;-62
2022/01/26 04:46:05;;;;;;;75.28;28.42;;;;;;;;;;5091351;28;20048;-62
2022/01/26 04:48:31;;;;;;;73.18;26.50;;;;;;;;;;5091434;28;20473;-62
2022/01/26 04:50:57;;;;;;;73.05;28.15;;;;;;;;;;5091483;28;20443;-62
2022/01/26 04:53:23;;;;;;;75.68;27.25;;;;;;;;;;5091322;28;20131;-62
2022/01/26 04:55:49;;;;;;;75.05;28.10;;;;;;;;;;5091497;28;20069;-61
2022/01/26 04:58:15;;;;;;;72.63;26.75;;;;;;;;;;5087272;28;20373;-62
2022/01/26 05:00:41;;;;;;;78.35;29.02;;;;;;;;;;5074979;28;20059;-63
2022/01/26 05:03:07;;;;;;;74.20;25.38;;;;;;;;;;5070873;28;20457;-63
2022/01/26 05:05:33;;;;;;;70.25;26.45;;;;;;;;;;5070791;28;20032;-62
2022/01/26 05:07:59;;;;;;;70.80;28.48;;;;;;;;;;5071132;28;20047;-62
2022/01/26 05:10:25;;;;;;;66.72;26.33;;;;;;;;;;5071276;28;20040;-61
2022/01/26 05:12:52;;;;;;;70.07;25.95;;;;;;;;;;5070459;28;20072;-63
2022/01/26 05:15:21;;;;;;;68.13;25.65;;;;;;;;;;5071218;28;20040;-61
2022/01/26 05:17:47;;;;;;;71.50;27.27;;;;;;;;;;5071163;28;20043;-62
2022/01/26 05:20:14;;;;;;;62.60;24.55;;;;;;;;;;5074285;28;20170;-63
2022/01/26 05:22:41;;;;;;;68.82;26.00;;;;;;;;;;5073224;28;20029;-62
2022/01/26 05:25:07;;;;;;;71.35;25.13;;;;;;;;;;5074852;28;20047;-62
2022/01/26 05:27:34;;;;;;;72.25;25.52;;;;;;;;;;5073765;28;20516;-61
2022/01/26 05:30:00;;;;;;;70.68;26.15;;;;;;;;;;5092045;22;20127;-61
2022/01/26 05:32:26;;;;;;;62.60;24.20;;;;;;;;;;5091118;28;20064;-62
2022/01/26 05:34:53;;;;;;;64.80;26.05;;;;;;;;;;5076456;28;20081;-61
2022/01/26 05:37:19;;;;;;;65.57;24.00;;;;;;;;;;5102071;28;20102;-61
2022/01/26 05:39:45;;;;;;;61.78;24.60;;;;;;;;;;5076775;28;20446;-63
2022/01/26 05:42:11;;;;;;;63.85;23.75;;;;;;;;;;5094629;28;20437;-61
2022/01/26 05:44:37;;;;;;;60.95;23.67;;;;;;;;;;5095095;28;20040;-63
2022/01/26 05:47:06;;;;;;;68.53;24.10;;;;;;;;;;5095127;28;20482;-61
2022/01/26 05:49:32;;;;;;;69.53;25.55;;;;;;;;;;5092631;28;20047;-63
2022/01/26 05:51:58;;;;;;;60.45;23.63;;;;;;;;;;5074506;28;20044;-64
2022/01/26 05:54:24;;;;;;;64.78;25.45;;;;;;;;;;5074010;28;20039;-63
2022/01/26 05:56:50;;;;;;;69.18;25.80;;;;;;;;;;5073887;28;20048;-64
2022/01/26 05:59:19;;;;;;;60.90;24.30;;;;;;;;;;5073732;28;20045;-64
2022/01/26 06:01:45;;;;;;;71.65;24.30;;;;;;;;;;5087463;28;20048;-64
2022/01/26 06:04:11;;;;;;;57.28;23.48;;;;;;;;;;5102184;28;20503;-63
2022/01/26 06:06:37;;;;;;;59.35;23.52;;;;;;;;;;5094095;28;20039;-64
2022/01/26 06:09:03;;;;;;;62.75;22.92;;;;;;;;;;5093659;28;20131;-64
2022/01/26 06:11:29;;;;;;;65.88;24.45;;;;;;;;;;5093752;28;20169;-64
2022/01/26 06:13:55;;;;;;;63.72;21.48;;;;;;;;;;5093823;28;20510;-64
2022/01/26 06:16:22;;;;;;;63.67;22.23;;;;;;;;;;5075228;28;20131;-65
2022/01/26 06:18:48;;;;;;;63.97;24.85;;;;;;;;;;5096438;28;20123;-64
2022/01/26 06:21:14;;;;;;;61.35;24.40;;;;;;;;;;5094435;28;20070;-63
2022/01/26 06:23:41;;;;;;;69.95;24.45;;;;;;;;;;5080626;28;20378;-64
2022/01/26 06:26:07;;;;;;;61.53;23.67;;;;;;;;;;5082840;28;20039;-64
2022/01/26 06:28:33;;;;;;;61.33;22.90;;;;;;;;;;5091393;28;20080;-65
2022/01/26 06:31:02;;;;;;;63.60;21.65;;;;;;;;;;5088437;28;20044;-64
2022/01/26 06:33:29;;;;;;;56.42;22.90;;;;;;;;;;5087134;28;20044;-63
2022/01/26 06:35:57;;;;;;;57.05;21.70;;;;;;;;;;5092743;28;20044;-63
2022/01/26 06:38:27;;;;;;;63.53;22.25;;;;;;;;;;5092541;28;20104;-63
2022/01/26 06:40:54;;;;;;;55.28;21.52;;;;;;;;;;5092224;28;20044;-64
2022/01/26 06:43:22;;;;;;;59.25;21.30;;;;;;;;;;5092668;28;20057;-63
2022/01/26 06:45:52;;;;;;;58.60;21.35;;;;;;;;;;5100836;28;20040;-63
2022/01/26 06:50:57;;;;;;;56.30;21.38;;;;;;;;;;5092356;28;20044;-63
2022/01/26 06:53:23;;;;;;;57.47;20.98;;;;;;;;;;5092416;28;20044;-63
2022/01/26 06:55:49;;;;;;;57.90;21.38;;;;;;;;;;5092456;28;20036;-63
2022/01/26 06:58:15;;;;;;;59.92;21.55;;;;;;;;;;5092656;28;20097;-63
2022/01/26 07:00:41;;;;;;;51.58;20.88;;;;;;;;;;5092609;28;20036;-63
2022/01/26 07:03:08;;;;;;;59.92;21.55;;;;;;;;;;5092106;28;20051;-64
2022/01/26 07:05:34;;;;;;;48.50;18.83;;;;;;;;;;5092773;28;20069;-63
2022/01/26 07:08:00;;;;;;;57.20;20.67;;;;;;;;;;5092761;28;20054;-63
2022/01/26 07:10:26;;;;;;;56.03;20.60;;;;;;;;;;5093817;28;20044;-63
2022/01/26 07:12:52;;;;;;;50.13;20.38;;;;;;;;;;5075382;28;20040;-63
2022/01/26 07:23:42;;;;;;;58.88;22.20;;;;;;;;;;5093403;28;20065;-63
2022/01/26 07:26:08;;;;;;;51.20;19.33;;;;;;;;;;5092941;28;20044;-65
2022/01/26 07:28:39;;;;;;;52.47;19.85;;;;;;;;;;5092579;28;20036;-62
2022/01/26 07:31:05;;;;;;;49.53;18.83;;;;;;;;;;5091300;28;20040;-63
2022/01/26 07:33:32;;;;;;;47.95;19.98;;;;;;;;;;5092268;28;20055;-62
2022/01/26 07:35:58;;;;;;;50.08;20.38;;;;;;;;;;5092123;28;20040;-62
2022/01/26 07:38:27;;;;;;;52.63;21.17;;;;;;;;;;5091814;28;20412;-62
2022/01/26 07:40:54;;;;;;;57.88;21.75;;;;;;;;;;5090481;28;20123;-62
2022/01/26 07:43:20;;;;;;;52.17;21.75;;;;;;;;;;5090954;28;20040;-61
2022/01/26 07:45:46;;;;;;;57.95;23.35;;;;;;;;;;5089587;28;20040;-60
2022/01/26 07:48:12;;;;;;;54.95;22.75;;;;;;;;;;5090670;28;20035;-62
2022/01/26 07:50:38;;;;;;;60.47;22.02;;;;;;;;;;5090323;28;20044;-63
2022/01/26 07:53:04;;;;;;;56.03;23.77;;;;;;;;;;5089001;28;20119;-62
2022/01/26 07:55:31;;;;;;;54.47;25.00;;;;;;;;;;5089017;28;20653;-63
2022/01/26 07:57:57;;;;;;;62.80;24.10;;;;;;;;;;5071433;28;20286;-61
2022/01/26 08:00:24;;;;;;;59.33;24.58;;;;;;;;;;5091977;28;20044;-63
2022/01/26 08:02:50;;;;;;;65.10;24.70;;;;;;;;;;5091645;28;20032;-63
2022/01/26 08:05:17;;;;;;;68.28;26.58;;;;;;;;;;5091631;28;20044;-63
2022/01/26 08:07:43;;;;;;;65.63;27.95;;;;;;;;;;5091826;28;20535;-63
2022/01/26 08:10:10;;;;;;;72.60;31.42;;;;;;;;;;5092631;28;20040;-61
2022/01/26 08:12:37;;;;;;;79.80;33.30;;;;;;;;;;5092110;28;20127;-64
2022/01/26 08:15:03;;;;;;;93.97;41.90;;;;;;;;;;5092037;28;20054;-65
2022/01/26 08:17:29;;;;;;;86.20;35.65;;;;;;;;;;5092230;28;20085;-66
2022/01/26 08:19:56;;;;;;;82.43;34.85;;;;;;;;;;5092050;28;20051;-64
2022/01/26 08:22:24;;;;;;;83.60;33.45;;;;;;;;;;5091451;28;20044;-64
2022/01/26 08:24:51;;;;;;;83.70;36.38;;;;;;;;;;5085617;28;20041;-64
2022/01/26 08:27:19;;;;;;;86.32;36.97;;;;;;;;;;5071454;28;20468;-64
2022/01/26 08:29:53;;;;;;;89.00;35.92;;;;;;;;;;5070946;28;20044;-64
2022/01/26 08:32:20;;;;;;;99.90;41.33;;;;;;;;;;5070479;28;20076;-65
2022/01/26 08:34:46;;;;;;;83.35;35.15;;;;;;;;;;5079010;28;20040;-64
2022/01/26 08:37:12;;;;;;;89.68;39.67;;;;;;;;;;5064648;28;20075;-65
2022/01/26 08:39:38;;;;;;;83.60;34.72;;;;;;;;;;5089086;28;20036;-65
2022/01/26 08:42:06;;;;;;;92.70;37.30;;;;;;;;;;5090311;28;20046;-63
2022/01/26 08:44:32;;;;;;;90.85;37.75;;;;;;;;;;5084760;28;20054;-65
2022/01/26 08:46:59;;;;;;;89.40;38.60;;;;;;;;;;5109353;28;20040;-64
2022/01/26 08:49:25;;;;;;;93.32;40.05;;;;;;;;;;5111823;28;20090;-64
2022/01/26 08:51:52;;;;;;;91.20;37.60;;;;;;;;;;5092691;28;20090;-63
2022/01/26 08:54:22;;;;;;;105.15;42.95;;;;;;;;;;5096655;28;20046;-64
2022/01/26 08:56:48;;;;;;;94.07;39.72;;;;;;;;;;5115278;28;20044;-65
2022/01/26 08:59:15;;;;;;;99.03;45.35;;;;;;;;;;5115100;28;20040;-64
2022/01/26 09:01:41;;;;;;;101.22;44.53;;;;;;;;;;5096489;28;20058;-65
2022/01/26 09:04:07;;;;;;;99.35;42.50;;;;;;;;;;5114956;28;20086;-63
2022/01/26 09:06:38;;;;;;;94.93;40.35;;;;;;;;;;5097238;28;20130;-65
2022/01/26 09:09:07;;;;;;;102.28;45.40;;;;;;;;;;5116119;28;20043;-65
2022/01/26 09:11:36;;;;;;;103.55;45.28;;;;;;;;;;5115283;28;20047;-64
2022/01/26 09:14:07;;;;;;;104.95;47.38;;;;;;;;;;5115080;28;20039;-63
2022/01/26 09:16:35;;;;;;;99.95;45.17;;;;;;;;;;5115007;28;20062;-61
2022/01/26 09:19:08;;;;;;;104.75;44.53;;;;;;;;;;5115013;28;20047;-63
2022/01/26 09:21:35;;;;;;;;;;;;;;;;;;5115661;28;20042;-63
2022/01/26 09:24:01;;;;;;;108.22;43.28;;;;;;;;;;5115361;28;20042;-63
2022/01/26 09:26:27;;;;;;;109.18;45.35;;;;;;;;;;5114852;28;20044;-63
2022/01/26 09:28:53;;;;;;;103.90;45.30;;;;;;;;;;5109524;28;20127;-63
2022/01/26 09:31:19;;;;;;;101.75;46.00;;;;;;;;;;5088995;28;20048;-62
2022/01/26 09:33:45;;;;;;;105.85;46.17;;;;;;;;;;5090016;28;20036;-63
2022/01/26 09:36:11;;;;;;;108.18;43.97;;;;;;;;;;5083766;28;20039;-63
2022/01/26 09:38:39;;;;;;;105.82;44.28;;;;;;;;;;5099734;28;20072;-61
2022/01/26 09:41:05;;;;;;;104.38;43.70;;;;;;;;;;5088246;28;20040;-64
2022/01/26 09:43:32;;;;;;;114.28;47.58;;;;;;;;;;5094868;28;20040;-63
2022/01/26 09:45:58;;;;;;;104.05;45.38;;;;;;;;;;5089019;28;20119;-63
2022/01/26 09:48:26;;;;;;;104.10;45.60;;;;;;;;;;5089828;28;20032;-63
2022/01/26 09:50:55;;;;;;;109.93;46.92;;;;;;;;;;5095463;28;20032;-64
2022/01/26 09:53:27;;;;;;;112.97;46.88;;;;;;;;;;5099338;28;20073;-63
2022/01/26 09:55:53;;;;;;;111.93;46.10;;;;;;;;;;5083856;28;20041;-63
2022/01/26 09:58:20;;;;;;;110.78;47.17;;;;;;;;;;5090330;28;20463;-65
2022/01/26 10:00:47;;;;;;;111.65;48.88;;;;;;;;;;5086257;28;20107;-65
2022/01/26 10:03:14;;;;;;;116.88;48.72;;;;;;;;;;5091419;28;20523;-65
2022/01/26 10:05:45;;;;;;;118.68;48.33;;;;;;;;;;5083879;28;20089;-65
2022/01/26 10:18:33;;;;;;;111.47;48.15;;;;;;;;;;5091172;28;20413;-66
2022/01/26 10:21:01;;;;;;;114.35;47.90;;;;;;;;;;5095014;28;20036;-66
2022/01/26 10:23:29;;;;;;;119.22;49.85;;;;;;;;;;5070986;28;20580;-66
2022/01/26 10:26:01;;;;;;;111.45;47.42;;;;;;;;;;5095470;28;20109;-66
2022/01/26 10:28:28;;;;;;;117.72;49.33;;;;;;;;;;5091929;28;20499;-68
2022/01/26 10:30:54;;;;;;;114.32;46.33;;;;;;;;;;5101586;28;20051;-66
2022/01/26 10:33:20;;;;;;;114.35;46.25;;;;;;;;;;5105396;28;20039;-65
2022/01/26 10:35:47;;;;;;;118.25;46.72;;;;;;;;;;5101973;28;20416;-65
2022/01/26 10:38:14;;;;;;;114.57;47.97;;;;;;;;;;5093282;28;20400;-66
2022/01/26 10:40:40;;;;;;;107.60;43.03;;;;;;;;;;5092232;28;20533;-65
2022/01/26 10:43:12;;;;;;;110.90;45.67;;;;;;;;;;5074361;28;20427;-66
2022/01/26 10:45:48;;;;;;;106.38;43.70;;;;;;;;;;5093968;28;20050;-64
2022/01/26 10:49:04;;;;;;;102.43;45.45;;;;;;;;;;5092355;28;20044;-64
2022/01/26 10:53:47;;;;;;;99.25;43.88;;;;;;;;;;5071058;28;20051;-63
2022/01/26 10:56:13;;;;;;;101.25;44.63;;;;;;;;;;5070322;28;20051;-64
2022/01/26 10:58:40;;;;;;;100.28;44.85;;;;;;;;;;5074410;28;20044;-65
2022/01/26 11:01:06;;;;;;;105.80;45.75;;;;;;;;;;5093353;28;20036;-65
2022/01/26 11:03:33;;;;;;;114.15;50.08;;;;;;;;;;5099457;28;20145;-65
2022/01/26 11:06:00;;;;;;;109.68;48.70;;;;;;;;;;5102995;28;20040;-64
2022/01/26 11:08:27;;;;;;;111.90;49.33;;;;;;;;;;5093714;28;20036;-65
2022/01/26 11:10:53;;;;;;;102.90;46.20;;;;;;;;;;5093669;28;20127;-65
2022/01/26 11:13:27;;;;;;;97.57;41.40;;;;;;;;;;5092716;28;20541;-64
2022/01/26 11:16:08;;;;;;;101.55;44.08;;;;;;;;;;5074505;28;20054;-64
2022/01/26 11:18:44;;;;;;;108.40;48.28;;;;;;;;;;5093498;28;20495;-64
2022/01/26 11:21:15;;;;;;;91.93;40.80;;;;;;;;;;5074310;28;20032;-63
2022/01/26 11:23:41;;;;;;;111.70;49.38;;;;;;;;;;5090940;28;20051;-64
2022/01/26 11:26:21;;;;;;;107.18;48.55;;;;;;;;;;5090448;28;20123;-62
2022/01/26 11:28:47;;;;;;;96.88;41.00;;;;;;;;;;5090671;28;20044;-65
2022/01/26 11:31:15;;;;;;;94.70;43.60;;;;;;;;;;5090149;28;20039;-65
2022/01/26 11:33:41;;;;;;;94.40;42.83;;;;;;;;;;5090880;28;20044;-66
2022/01/26 11:36:16;;;;;;;88.35;38.70;;;;;;;;;;5090651;28;20126;-68
2022/01/26 11:47:10;;;;;;;80.65;36.47;;;;;;;;;;5073059;28;20329;-65
2022/01/26 11:49:44;;;;;;;74.50;36.03;;;;;;;;;;5071381;28;20480;-65
2022/01/26 11:52:21;;;;;;;85.28;37.47;;;;;;;;;;5072334;28;20055;-65
2022/01/26 11:54:52;;;;;;;80.10;35.75;;;;;;;;;;5071755;28;20036;-65
2022/01/26 11:57:19;;;;;;;80.72;34.85;;;;;;;;;;5071597;28;20048;-65
2022/01/26 11:59:57;;;;;;;81.68;36.20;;;;;;;;;;5071632;28;20044;-64
2022/01/26 12:03:10;;;;;;;78.43;34.70;;;;;;;;;;5070688;28;20512;-65
2022/01/26 12:05:21;;;;;;;79.25;33.75;;;;;;;;;;5063865;28;20060;-64
2022/01/26 12:07:47;;;;;;;75.32;34.45;;;;;;;;;;5073651;28;20436;-65
2022/01/26 12:10:23;;;;;;;76.32;33.97;;;;;;;;;;5055296;28;20071;-64
2022/01/26 12:12:58;;;;;;;84.72;38.50;;;;;;;;;;5054320;28;20127;-65
2022/01/26 12:15:27;;;;;;;85.43;35.38;;;;;;;;;;5072033;28;20036;-64
2022/01/26 12:18:12;;;;;;;73.63;33.13;;;;;;;;;;5072735;28;20496;-65
2022/01/26 12:37:10;;;;;;;75.82;31.77;;;;;;;;;;5078112;28;20169;-63
2022/01/26 12:42:56;;;;;;;68.75;29.00;;;;;;;;;;5091435;28;20075;-65
2022/01/26 12:45:25;;;;;;;73.68;31.23;;;;;;;;;;5057748;28;20032;-65
2022/01/26 12:47:58;;;;;;;72.93;31.52;;;;;;;;;;5055212;28;20099;-66
2022/01/26 12:50:25;;;;;;;75.07;31.33;;;;;;;;;;5056720;28;20036;-66
2022/01/26 12:52:56;;;;;;;63.40;29.45;;;;;;;;;;5071548;28;20537;-66
2022/01/26 12:55:34;;;;;;;68.57;31.67;;;;;;;;;;5057126;28;20097;-65
2022/01/26 12:58:05;;;;;;;72.13;29.63;;;;;;;;;;5057585;28;20044;-65
2022/01/26 13:00:43;;;;;;;69.20;31.02;;;;;;;;;;5057516;28;20040;-66
2022/01/26 13:03:11;;;;;;;69.60;31.77;;;;;;;;;;5056363;28;20385;-67
2022/01/26 13:05:38;;;;;;;76.68;32.80;;;;;;;;;;5071430;28;20040;-66
2022/01/26 13:08:06;;;;;;;71.53;30.27;;;;;;;;;;5068937;28;20040;-67
2022/01/26 13:10:34;;;;;;;66.32;30.98;;;;;;;;;;5069626;28;20040;-65
2022/01/26 13:13:15;;;;;;;69.05;29.42;;;;;;;;;;5085025;28;20397;-65
2022/01/26 13:16:26;;;;;;;66.78;30.75;;;;;;;;;;5063938;28;20036;-64
2022/01/26 13:23:47;;;;;;;65.68;30.27;;;;;;;;;;5069785;28;20171;-65
2022/01/26 13:26:22;;;;;;;76.05;31.15;;;;;;;;;;5072622;28;20085;-64
2022/01/26 13:29:01;;;;;;;72.55;31.00;;;;;;;;;;5089824;28;20043;-63
2022/01/26 13:32:07;;;;;;;63.28;27.15;;;;;;;;;;5090582;28;20523;-64
2022/01/26 13:37:29;;;;;;;67.30;29.52;;;;;;;;;;5079451;28;20412;-64
2022/01/26 13:50:36;;;;;;;66.88;30.42;;;;;;;;;;5081183;28;20424;-65
2022/01/26 13:53:13;;;;;;;67.78;30.55;;;;;;;;;;5076616;28;20039;-65
2022/01/26 13:56:52;;;;;;;67.68;31.17;;;;;;;;;;5066766;28;20093;-64
2022/01/26 14:01:15;;;;;;;70.30;32.63;;;;;;;;;;5087905;28;20036;-64
2022/01/26 14:03:44;;;;;;;70.53;32.47;;;;;;;;;;5074011;28;20044;-64
2022/01/26 14:06:11;;;;;;;66.75;29.40;;;;;;;;;;5089395;28;20164;-63
2022/01/26 14:08:37;;;;;;;67.68;30.73;;;;;;;;;;5073928;28;20437;-63
2022/01/26 14:11:04;;;;;;;72.90;30.10;;;;;;;;;;5087100;28;20073;-63
2022/01/26 14:13:30;;;;;;;72.22;32.53;;;;;;;;;;5089381;28;20141;-64
2022/01/26 14:15:59;;;;;;;70.10;32.55;;;;;;;;;;5086892;28;20119;-64
2022/01/26 14:21:30;;;;;;;64.30;30.58;;;;;;;;;;5083367;28;20036;-65
2022/01/26 14:26:21;;;;;;;66.82;30.95;;;;;;;;;;5080971;28;20040;-65
2022/01/26 14:28:48;;;;;;;71.10;30.52;;;;;;;;;;5090922;28;20500;-65
2022/01/26 14:36:41;;;;;;;65.28;31.77;;;;;;;;;;5085867;28;20382;-65
2022/01/26 15:08:42;;;;;;;76.40;33.90;;;;;;;;;;5090676;28;20039;-65
2022/01/26 15:32:23;;;;;;;60.15;28.85;;;;;;;;;;5075248;28;20047;-65
2022/01/26 15:48:42;;;;;;;58.03;27.65;;;;;;;;;;5092995;28;20497;-65
2022/01/26 15:49:54;;;;;;;56.35;27.30;;;;;;;;;;5074790;28;20497;-66
2022/01/26 15:52:45;;;;;;;;;;;;;;;;;;5093096;28;20048;-66
2022/01/26 16:06:20;;;;;;;58.70;26.55;;;;;;;;;;5092482;28;20043;-65
2022/01/26 16:17:02;;;;;;;60.38;26.50;;;;;;;;;;5086442;28;20044;-62
2022/01/26 16:52:25;;;;;;;61.70;28.98;;;;;;;;;;5081654;28;20062;-62
2022/01/26 18:16:29;;;;;;;65.35;31.42;;;;;;;;;;5093966;28;20048;-64
2022/01/26 18:32:54;;;;;;;60.67;30.90;;;;;;;;;;5087095;28;20122;-65
2022/01/26 18:46:21;;;;;;;62.70;28.77;;;;;;;;;;5073540;28;20040;-64
2022/01/26 18:51:52;;;;;;;58.78;27.63;;;;;;;;;;5083111;28;20048;-65
2022/01/26 18:54:19;;;;;;;54.28;27.60;;;;;;;;;;5086346;28;20054;-66
2022/01/26 18:56:46;;;;;;;58.55;28.35;;;;;;;;;;5089405;28;20105;-64
2022/01/26 18:59:14;;;;;;;56.85;29.48;;;;;;;;;;5081344;28;20045;-64
2022/01/26 19:01:40;;;;;;;58.30;27.52;;;;;;;;;;5075115;28;20040;-64
2022/01/26 19:04:06;;;;;;;55.47;29.00;;;;;;;;;;5072977;28;20512;-65
2022/01/26 19:06:33;;;;;;;61.63;30.15;;;;;;;;;;5072514;28;20094;-64
2022/01/26 19:08:59;;;;;;;62.15;30.58;;;;;;;;;;5072981;28;20048;-64
2022/01/26 19:11:25;;;;;;;61.53;29.67;;;;;;;;;;5072606;28;20049;-65
2022/01/26 19:13:52;;;;;;;61.22;28.70;;;;;;;;;;5072576;28;20072;-65
2022/01/26 19:16:33;;;;;;;60.33;28.42;;;;;;;;;;5072952;28;20383;-65
2022/01/26 19:26:59;;;;;;;64.95;31.75;;;;;;;;;;5072805;28;20044;-64
2022/01/26 19:32:16;;;;;;;63.45;32.67;;;;;;;;;;5091476;28;20390;-65
2022/01/26 19:51:01;;;;;;;62.08;30.23;;;;;;;;;;5085233;28;20083;-64
2022/01/26 19:53:27;;;;;;;53.45;29.20;;;;;;;;;;5089317;28;20039;-64
2022/01/26 19:55:53;;;;;;;54.88;28.17;;;;;;;;;;5089478;28;20468;-62
2022/01/26 19:58:19;;;;;;;56.08;31.63;;;;;;;;;;5089461;28;20079;-65
2022/01/26 20:00:46;;;;;;;55.50;29.75;;;;;;;;;;5091186;28;20032;-63
2022/01/26 20:03:14;;;;;;;58.65;29.90;;;;;;;;;;5088526;28;20035;-66
2022/01/26 20:05:42;;;;;;;59.75;30.85;;;;;;;;;;5071342;28;20508;-63
2022/01/26 20:08:36;;;;;;;59.47;29.92;;;;;;;;;;5087118;28;20392;-64
2022/01/26 20:10:59;;;;;;;56.80;31.05;;;;;;;;;;5086259;28;20040;-64
2022/01/26 20:18:30;;;;;;;55.33;29.55;;;;;;;;;;5088954;28;20392;-63
2022/01/26 20:21:02;;;;;;;60.53;30.23;;;;;;;;;;5093331;28;20116;-63
2022/01/26 20:23:32;;;;;;;56.28;29.02;;;;;;;;;;5090037;28;20202;-64
2022/01/26 20:25:59;;;;;;;57.35;29.33;;;;;;;;;;5095664;28;20044;-64
2022/01/26 20:28:26;;;;;;;58.30;30.58;;;;;;;;;;5083985;28;20040;-64
2022/01/26 20:30:52;;;;;;;55.53;30.27;;;;;;;;;;5091581;28;20188;-64
2022/01/26 20:33:20;;;;;;;57.55;31.58;;;;;;;;;;5075881;28;20051;-64
2022/01/26 20:35:46;;;;;;;59.28;31.52;;;;;;;;;;5080008;28;20123;-64
2022/01/26 20:38:12;;;;;;;55.67;31.13;;;;;;;;;;5089251;28;20389;-64
2022/01/26 20:40:39;;;;;;;60.75;31.90;;;;;;;;;;5085571;28;20032;-63
2022/01/26 20:43:05;;;;;;;58.28;30.33;;;;;;;;;;5048203;28;20891;-64
2022/01/26 20:45:31;;;;;;;59.67;32.55;;;;;;;;;;5055443;28;20073;-64
2022/01/26 20:48:01;;;;;;;57.55;33.05;;;;;;;;;;5051827;28;20488;-66
2022/01/26 20:50:27;;;;;;;60.20;31.98;;;;;;;;;;5090134;28;20046;-66
2022/01/26 20:52:54;;;;;;;58.63;32.60;;;;;;;;;;5090661;28;20044;-66
2022/01/26 20:55:20;;;;;;;63.47;33.03;;;;;;;;;;5090925;28;20036;-65
2022/01/26 20:57:47;;;;;;;59.28;31.50;;;;;;;;;;5087216;28;20035;-65
2022/01/26 21:00:16;;;;;;;59.08;32.53;;;;;;;;;;5091468;28;20032;-65
2022/01/26 21:02:48;;;;;;;62.83;34.15;;;;;;;;;;5089513;28;20040;-65
2022/01/26 21:05:15;;;;;;;62.88;32.00;;;;;;;;;;5089183;28;20649;-65
2022/01/26 21:07:41;;;;;;;64.22;34.42;;;;;;;;;;5094202;28;20035;-66
2022/01/26 21:10:09;;;;;;;68.82;34.35;;;;;;;;;;5088081;28;20054;-66
2022/01/26 21:12:36;;;;;;;60.67;32.28;;;;;;;;;;5089033;28;20042;-65
2022/01/26 21:15:03;;;;;;;63.03;34.22;;;;;;;;;;5091316;28;20043;-65
2022/01/26 21:17:29;;;;;;;58.20;31.42;;;;;;;;;;5085500;28;20036;-65
2022/01/26 21:19:55;;;;;;;64.25;34.33;;;;;;;;;;5092126;28;20040;-65
2022/01/26 21:22:22;;;;;;;67.30;35.13;;;;;;;;;;5093096;28;20089;-66
2022/01/26 21:24:48;;;;;;;52.65;29.60;;;;;;;;;;5089015;28;20111;-65
2022/01/26 21:27:16;;;;;;;59.13;31.63;;;;;;;;;;5088108;28;20039;-66
2022/01/26 21:29:42;;;;;;;59.40;32.78;;;;;;;;;;5090162;28;20043;-67
2022/01/26 21:32:08;;;;;;;60.58;32.75;;;;;;;;;;5089634;28;20042;-65
2022/01/26 21:34:34;;;;;;;61.20;32.45;;;;;;;;;;5092902;28;20504;-66
2022/01/26 21:37:01;;;;;;;56.33;31.83;;;;;;;;;;5089583;28;20395;-66
2022/01/26 21:39:27;;;;;;;65.43;33.70;;;;;;;;;;5098421;28;20039;-65